マイアミ国際空港の過去48時間の天気

マイアミ国際空港 (Miami, Miami International Airport)

現在時刻: 7/12 11:06 EDT (7/12 15:06 UTC) 以下の時間は現地時間です。

過去48時間のMETAR気象情報
時間 風向 風速(m/s) 視程 気温(℃) 湿度(%) 気圧(hPa) 天気現象
12 10:53 7 10km以上 32.2 58 1015
12 09:53 南南西 4 10km以上 30.6 68 1014.7
12 08:53 南南西 2 10km以上 28.9 74 1015.2
12 07:53 南南西 3 10km以上 27.2 82 1014.6
12 06:53 南南西 2 10km以上 26.7 87 1013.6
12 05:53 南西 2 10km以上 26.7 87 1013.4
12 04:53 西南西 2 10km以上 26.7 87 1013.2
12 03:53 2 10km以上 26.7 87 1013.7
12 02:53 3 10km以上 27.2 85 1013.7
12 01:53 2 10km以上 26.7 85 1014.2
12 00:53 2 10km以上 26.7 85 1014.9
11 23:53 3 10km以上 27.2 85 1015.3
11 22:53 3 10km以上 26.7 85 1015.5
11 21:53 3 10km以上 26.1 88 1015.1
11 20:53 南西 2 10km以上 26.1 88 1014.4
11 19:53 3 10km以上 26.7 82 1014.3
11 18:53 3 10km以上 25.6 87 1014.3 弱い雨
11 17:53 静穏 0 10km以上 25.6 87 1014.4
11 17:07 南南西 5 10km以上 26.1 82 1015 弱い雨
11 16:53 南西 5 10km以上 26.7 79 1014.7 周辺で雷
11 15:53 静穏 0 10km以上 30 70 1014.6
11 14:53 南南東 3 10km以上 29.4 75 1014.4
11 13:53 東南東 3 10km以上 28.9 82 1015.4 弱い雨
11 12:53 2 10km以上 26.1 88 1015.5
11 12:48 南南東 3 10km以上 26 89 1016
11 12:19 東南東 3 10km以上 26.1 85 1016
11 11:53 西北西 6 4850m 25.6 87 1015.8 雷雨 もや
11 11:40 不定 2 10km以上 27.8 82 1016 弱い雷雨
11 11:26 南南西 2 10km以上 27.2 82 1015 弱い雷雨
11 11:10 北西 4 1600m 26.1 88 1015 強い雷雨 もや
11 10:53 3 10km以上 32.2 66 1015.1
11 10:40 西 2 10km以上 31.7 65 1015
11 09:53 西北西 3 10km以上 31.7 68 1015
11 08:53 北西 2 10km以上 30.6 68 1015.1
11 07:53 西 3 10km以上 28.9 77 1015
11 06:53 不定 2 10km以上 27.8 85 1014.2
11 05:53 西南西 2 10km以上 27.8 85 1013.7
11 04:53 南南西 2 10km以上 27.2 85 1013.7
11 03:53 西南西 2 10km以上 27.8 85 1013.9
11 02:53 南西 2 10km以上 27.8 85 1014.5
11 01:53 南西 2 10km以上 27.8 85 1015.5
11 00:53 南南西 3 10km以上 27.8 85 1015.6
10 23:53 南南西 3 10km以上 27.8 85 1016
10 22:53 南南西 4 10km以上 28.3 82 1015.8
10 21:53 南南西 2 10km以上 28.3 79 1015.8
10 20:53 南東 4 10km以上 27.2 85 1015.5
10 19:53 南南東 2 10km以上 26.7 85 1015.8 弱い雨
10 19:40 南南東 3 10km以上 26.1 85 1016
10 19:32 南南東 3 10km以上 26.1 88 1016 周辺で雷
10 18:53 6 10km以上 26.1 90 1015.8 弱い雷雨 もや
10 17:53 静穏 0 10km以上 28.3 82 1014.9
10 16:53 東南東 3 10km以上 28.3 85 1015.2
10 15:53 北北西 5 8050m 30 70 1015.2 弱い雷雨
KMIA 121453Z 19013KT 10SM SCT032 SCT130 BKN250 32/23 A2997 RMK AO2 SLP150 CB DSNT SW-NW MOV NE T03220228 51004 $
KMIA 121353Z 21007KT 10SM FEW030 FEW130 BKN250 31/24 A2996 RMK AO2 SLP147 CB DSNT E AND SW-NW MOV NE T03060239 $
KMIA 121253Z 21004KT 10SM FEW025 FEW150 BKN250 29/24 A2998 RMK AO2 SLP152 CB DSNT E AND SW-NW MOV NE T02890239 $
KMIA 121153Z 20005KT 10SM FEW025 SCT130 SCT180 BKN250 27/24 A2996 RMK AO2 SLP146 CB DSNT ALQDS 70094 T02720239 10272 20267 53014 $
KMIA 121053Z 20003KT 10SM FEW025 BKN250 27/24 A2993 RMK AO2 SLP136 T02670244 $
KMIA 120953Z 22003KT 10SM FEW025 FEW032 BKN250 27/24 A2993 RMK AO2 SLP134 T02670244 $
KMIA 120853Z 24003KT 10SM FEW025 SCT250 27/24 A2992 RMK AO2 SLP132 T02670244 58010 $
KMIA 120753Z 19003KT 10SM FEW025 BKN250 27/24 A2994 RMK AO2 SLP137 T02670244 $
KMIA 120653Z VRB05KT 10SM BKN250 27/24 A2994 RMK AO2 SLP137 T02720244 $
KMIA 120553Z 18003KT 10SM SCT220 BKN250 27/24 A2995 RMK AO2 SLP142 T02670239 10272 20261 58014 $
KMIA 120453Z 19003KT 10SM SCT200 BKN250 27/24 A2997 RMK AO2 SLP149 T02670239 403220256 $
KMIA 120353Z 19005KT 10SM FEW025 SCT200 BKN250 27/24 A2998 RMK AO2 SLP153 T02720244 $
KMIA 120253Z 17005KT 10SM FEW030 SCT190 BKN220 BKN250 27/24 A2999 RMK AO2 SLP155 T02670239 53012 $
KMIA 120153Z 17005KT 10SM BKN170 OVC250 26/24 A2998 RMK AO2 SLP151 T02610239 $
KMIA 120053Z 22003KT 10SM SCT120 BKN200 26/24 A2996 RMK AO2 SLP144 T02610239 $
KMIA 112353Z 19005KT 10SM FEW025 FEW039 BKN120 OVC200 27/23 A2995 RMK AO2 RAE49 SLP143 P0000 60013 T02670233 10306 20256 55004 $
KMIA 112253Z 18005KT 10SM -RA FEW025 FEW085 BKN130 OVC250 26/23 A2995 RMK AO2 SLP143 P0009 T02560233 $
KMIA 112153Z 00000KT 8SM RA FEW026 SCT085 BKN110 OVC250 26/23 A2996 RMK AO2 LTG DSNT SE RAB02 SLP144 CB DSNT SE MOV E P0003 T02560233 $
KMIA 112107Z 21009KT 10SM -RA FEW026CB SCT060 BKN100 OVC250 26/23 A2996 RMK AO2 LTG DSNT SW RAB02 CB SE-SW MOV E P0000 T02610228 $
KMIA 112053Z 23010KT 10SM VCTS SCT026CB SCT033 BKN150 OVC250 27/23 A2997 RMK AO2 RAB37E52 TSE46 SLP147 CB SE-SW MOV E P0001 60001 T02670228 51003 $
KMIA 111953Z 00000KT 10SM FEW030 BKN100 OVC250 30/24 A2996 RMK AO2 LTG DSNT SW-NW SLP146 CB DSNT SW-NW-N MOV E T03000239 $
KMIA 111853Z 16005KT 10SM FEW030 FEW090 SCT150 BKN250 29/24 A2996 RMK AO2 LTG DSNT W RAE01 SLP144 CB DSNT NE AND W-NW MOV E P0000 T02940244 $
KMIA 111753Z 12005KT 10SM -RA FEW040 FEW080 SCT100 BKN180 OVC250 29/26 A2998 RMK AO2 LTG DSNT NE RAB1658E07B52 SLP154 CB DSNT NE MOV E P0000 60081 T02890256 10322 20256 50003 $
KMIA 111653Z 18003KT 10SM FEW030 BKN060 BKN120 BKN180 OVC250 26/24 A2999 RMK AO2 LTG DSNT E AND SE RAE12 TSE12B19E47 SLP155 CB DSNT N AND NE-SE MOV E P0000 T02610239 $
KMIA 111648Z 16006KT 10SM FEW030 BKN060 BKN120 BKN180 OVC250 26/24 A2999 RMK AO2 LTG DSNT E AND SE RAE12 TSE12B19E47 CB DSNT N AND NE-SE MOV E P0000 $
KMIA 111619Z 12005KT 10SM TS FEW015 SCT025CB BKN040 BKN130 OVC200 26/23 A3000 RMK AO2 LTG DSNT E-SW RAE12 TSE12B19 OCNL LTGIC NE-SE TS NE-SE MOV E CB DSNT S MOV E P0000 T02610233 $
KMIA 111553Z 30011G27KT 3SM R09/5500VP6000FT TSRA BR SCT012 BKN020CB OVC095 26/23 A3000 RMK AO2 PK WND 28027/1550 LTG DSNT SE-W RAB03 TSE28B37 SLP158 OCNL LTGICCG N-NE SE AND NW TS N-NE SE AND NW MOV E P0081 T02560233 $
KMIA 111540Z VRB03KT 9SM -TSRA SCT023CB BKN050 OVC090 28/24 A2999 RMK AO2 LTG DSNT SE-W RAB03 TSE28B37 OCNL LTGICCG N-E-SE TS N-E-SE MOV E CB W-NW MOV E P0078 T02780244 $
KMIA 111526Z 20003KT 7SM -TSRA SCT014CB BKN030 BKN100 OVC180 27/24 A2998 RMK AO2 LTG DSNT S AND W RAB03 OCNL LTGICCG SE-S TS SE-S MOV E CB DSNT W-NW MOV E P0077 T02720239 $
KMIA 111510Z 31008G22KT 1SM R09/1200VP6000FT +TSRA BR SCT009 BKN026CB BKN035 26/24 A2998 RMK AO2 LTG DSNT N AND S AND W RAB03 OCNL LTGICCG OHD TS OHD MOV E P0035 T02610239 $
KMIA 111453Z COR VRB05KT 10SM TS FEW025CB BKN045 BKN180 BKN250 32/25 A2998 RMK AO2 LTG DSNT N AND S AND SW TSB40 SLP151 OCNL LTGICCG SW-W TS SW-W MOV E CB DSNT N MOV E T03220250 52001 $
KMIA 111440Z 26004KT 10SM TS FEW030CB BKN045 BKN180 BKN250 32/24 A2997 RMK AO2 LTG DSNT N AND SW TSB40 OCNL LTGICCG SW-W TS SW-W MOV E CB DSNT N MOV E T03170244 $
KMIA 111353Z COR 29006KT 10SM FEW044 FEW060 SCT180 BKN250 32/25 A2997 RMK AO2 SLP150 CB DSNT NE MOV E T03170250 $
KMIA 111253Z 31003KT 10SM FEW035 FEW180 BKN250 31/24 A2998 RMK AO2 SLP151 CB DSNT W MOV E T03060239 $
KMIA 111153Z 27005KT 10SM FEW040 SCT180 OVC250 29/24 A2997 RMK AO2 SLP150 70035 T02890244 10289 20272 53013 $
KMIA 111053Z VRB03KT 10SM SCT200 OVC250 28/25 A2995 RMK AO2 SLP142 T02780250 $
KMIA 110953Z 24003KT 10SM OVC250 28/25 A2993 RMK AO2 SLP137 T02780250 $
KMIA 110853Z 21003KT 10SM OVC250 27/24 A2994 RMK AO2 SLP137 T02720244 56018 $
KMIA 110753Z 24004KT 10SM FEW029 FEW036 BKN250 28/25 A2994 RMK AO2 SLP139 T02780250 $
KMIA 110653Z 22004KT 10SM FEW028 FEW035 SCT200 BKN250 28/25 A2996 RMK AO2 SLP145 T02780250 $
KMIA 110553Z 22003KT 10SM FEW028 FEW040 BKN250 28/25 A2999 RMK AO2 SLP155 60000 T02780250 10283 20267 58003 $
KMIA 110453Z 20005KT 10SM SCT180 OVC250 28/25 A2999 RMK AO2 SLP156 T02780250 403610261 $
KMIA 110353Z 21006KT 10SM BKN250 28/25 A3000 RMK AO2 SLP160 T02780250 $
KMIA 110253Z 21007KT 10SM BKN250 28/25 A3000 RMK AO2 SLP158 60000 T02830250 53000 $
KMIA 110153Z 20003KT 10SM FEW055 SCT130 SCT180 OVC250 28/24 A3000 RMK AO2 SLP158 T02830244 $
KMIA 110053Z 14007KT 100V160 10SM FEW030 SCT060 BKN180 OVC250 27/24 A2999 RMK AO2 LTG DSNT SE RAE12 SLP155 P0000 T02720244 $
KMIA 102353Z 16004KT 10SM -RA FEW030 BKN055 BKN110 BKN180 OVC250 27/24 A3000 RMK AO2 WSHFT 2240 LTG DSNT SE AND S RAE17B51 TSE26 SLP158 OCNL LTGIC DSNT SE CB DSNT SE MOV SE P0000 60035 T02670239 10361 20261 $
KMIA 102340Z 15006KT 10SM FEW025 BKN060 BKN120 BKN180 26/23 A3000 RMK AO2 WSHFT 2240 LTG DSNT SE AND S RAE17 TSE26 OCNL LTGICCA DSNT SE CB DSNT SE MOV SE P0000 T02610233 $
KMIA 102332Z 16006KT 10SM VCTS FEW025 BKN060 BKN120 BKN180 26/24 A3000 RMK AO2 WSHFT 2240 LTG DSNT SE AND S RAE17 TSE26 OCNL LTGICCA DSNT SE CB DSNT SE MOV SE P0000 T02610239 $
KMIA 102253Z COR 17011KT 6SM -TSRA BR FEW025CB SCT045 BKN075 OVC180 26/24 A3000 RMK AO2 WSHFT 2238 LTG DSNT SE-SW RAB2159 SLP158 OCNL LTGIC SE-SW TS SE-SW MOV SE P0020 T02610244 $
KMIA 102153Z 00000KT 10SM TS FEW025CB BKN050 BKN085 BKN180 BKN250 28/25 A2997 RMK AO2 LTG DSNT ALQDS RAE2041 TSE2014B2018E2046B53 SLP149 OCNL LTGICCG W-NW TS W-NW MOV E CB DSNT NE AND SE MOV E P0014 T02830250 $
KMIA 102053Z 12006KT 10SM FEW025 BKN040 BKN060 BKN180 OVC250 28/26 A2998 RMK A02 TSE46 CB DSNT NE-E MOV E SLP152 P0014 60015 T02830256 50003
KMIA 101953Z 34010G16KT 5SM -TSRA SCT030CB BKN060 BKN130 BKN250 30/24 A2998 RMK AO2 LTG DSNT N RAB52 TSB11E26B31 SLP152 OCNL LTGICCG NW-NE TS NW-NE MOV E CB SE-SW MOV E P0001 T03000239